sensor_id;sensor_type;location;lat;lon;timestamp;P1;durP1;ratioP1;P2;durP2;ratioP2
12976;SDS011;6553;48.412;9.514;2022-08-04T00:00:13;1.27;;;1.17;;
12976;SDS011;6553;48.412;9.514;2022-08-04T00:10:55;1.50;;;1.40;;
12976;SDS011;6553;48.412;9.514;2022-08-04T00:13:24;1.35;;;1.25;;
12976;SDS011;6553;48.412;9.514;2022-08-04T00:15:59;1.02;;;1.02;;
12976;SDS011;6553;48.412;9.514;2022-08-04T00:18:41;1.60;;;1.50;;
12976;SDS011;6553;48.412;9.514;2022-08-04T00:21:15;1.38;;;1.27;;
12976;SDS011;6553;48.412;9.514;2022-08-04T00:23:47;1.67;;;1.58;;
12976;SDS011;6553;48.412;9.514;2022-08-04T00:26:16;1.38;;;1.27;;
12976;SDS011;6553;48.412;9.514;2022-08-04T00:28:42;1.35;;;1.25;;
12976;SDS011;6553;48.412;9.514;2022-08-04T00:31:09;1.40;;;1.30;;
12976;SDS011;6553;48.412;9.514;2022-08-04T00:33:38;1.50;;;1.40;;
12976;SDS011;6553;48.412;9.514;2022-08-04T00:36:09;1.17;;;1.10;;
12976;SDS011;6553;48.412;9.514;2022-08-04T00:38:39;1.30;;;1.25;;
12976;SDS011;6553;48.412;9.514;2022-08-04T00:41:25;1.30;;;1.20;;
12976;SDS011;6553;48.412;9.514;2022-08-04T01:02:53;1.40;;;1.30;;
12976;SDS011;6553;48.412;9.514;2022-08-04T01:12:03;1.40;;;1.30;;
12976;SDS011;6553;48.412;9.514;2022-08-04T01:15:06;1.27;;;1.17;;
12976;SDS011;6553;48.412;9.514;2022-08-04T01:18:20;1.33;;;1.23;;
12976;SDS011;6553;48.412;9.514;2022-08-04T01:29:51;1.50;;;1.40;;
12976;SDS011;6553;48.412;9.514;2022-08-04T01:32:47;1.55;;;1.45;;
12976;SDS011;6553;48.412;9.514;2022-08-04T01:35:26;1.50;;;1.40;;
12976;SDS011;6553;48.412;9.514;2022-08-04T01:38:00;1.33;;;1.23;;
12976;SDS011;6553;48.412;9.514;2022-08-04T01:40:33;1.40;;;1.13;;
12976;SDS011;6553;48.412;9.514;2022-08-04T01:43:02;1.35;;;1.27;;
12976;SDS011;6553;48.412;9.514;2022-08-04T01:45:29;1.30;;;1.20;;
12976;SDS011;6553;48.412;9.514;2022-08-04T01:47:56;1.60;;;1.50;;
12976;SDS011;6553;48.412;9.514;2022-08-04T01:50:22;1.58;;;1.48;;
12976;SDS011;6553;48.412;9.514;2022-08-04T01:52:52;1.42;;;1.33;;
12976;SDS011;6553;48.412;9.514;2022-08-04T01:55:19;1.13;;;1.10;;
12976;SDS011;6553;48.412;9.514;2022-08-04T01:57:49;1.38;;;1.27;;
12976;SDS011;6553;48.412;9.514;2022-08-04T02:00:18;1.48;;;1.33;;
12976;SDS011;6553;48.412;9.514;2022-08-04T02:02:48;1.30;;;1.25;;
12976;SDS011;6553;48.412;9.514;2022-08-04T02:05:16;1.50;;;1.40;;
12976;SDS011;6553;48.412;9.514;2022-08-04T02:13:09;1.25;;;1.15;;
12976;SDS011;6553;48.412;9.514;2022-08-04T02:16:02;1.27;;;1.27;;
12976;SDS011;6553;48.412;9.514;2022-08-04T02:19:15;1.38;;;1.27;;
12976;SDS011;6553;48.412;9.514;2022-08-04T02:21:55;1.60;;;1.50;;
12976;SDS011;6553;48.412;9.514;2022-08-04T02:24:31;1.85;;;1.42;;
12976;SDS011;6553;48.412;9.514;2022-08-04T02:27:13;2.10;;;1.30;;
12976;SDS011;6553;48.412;9.514;2022-08-04T02:32:24;1.50;;;1.40;;
12976;SDS011;6553;48.412;9.514;2022-08-04T02:34:57;1.50;;;1.40;;
12976;SDS011;6553;48.412;9.514;2022-08-04T02:37:32;2.35;;;1.20;;
12976;SDS011;6553;48.412;9.514;2022-08-04T02:40:02;1.33;;;1.27;;
12976;SDS011;6553;48.412;9.514;2022-08-04T02:42:31;1.50;;;1.40;;
12976;SDS011;6553;48.412;9.514;2022-08-04T02:44:58;1.60;;;1.50;;
12976;SDS011;6553;48.412;9.514;2022-08-04T02:47:26;1.10;;;1.10;;
12976;SDS011;6553;48.412;9.514;2022-08-04T02:49:53;1.60;;;1.50;;
12976;SDS011;6553;48.412;9.514;2022-08-04T02:52:22;1.38;;;1.20;;
12976;SDS011;6553;48.412;9.514;2022-08-04T02:54:50;1.45;;;1.13;;
12976;SDS011;6553;48.412;9.514;2022-08-04T02:57:25;2.78;;;1.20;;
12976;SDS011;6553;48.412;9.514;2022-08-04T03:00:10;1.30;;;1.15;;
12976;SDS011;6553;48.412;9.514;2022-08-04T03:05:43;1.38;;;1.23;;
12976;SDS011;6553;48.412;9.514;2022-08-04T03:35:22;1.40;;;1.30;;
12976;SDS011;6553;48.412;9.514;2022-08-04T03:47:43;1.40;;;1.30;;
12976;SDS011;6553;48.412;9.514;2022-08-04T03:56:34;1.42;;;1.33;;
12976;SDS011;6553;48.412;9.514;2022-08-04T04:21:28;1.55;;;1.40;;
12976;SDS011;6553;48.412;9.514;2022-08-04T04:30:37;1.50;;;1.40;;
12976;SDS011;6553;48.412;9.514;2022-08-04T04:36:22;1.00;;;1.00;;
12976;SDS011;6553;48.412;9.514;2022-08-04T04:45:04;1.20;;;1.10;;
12976;SDS011;6553;48.412;9.514;2022-08-04T04:53:53;1.40;;;1.30;;
12976;SDS011;6553;48.412;9.514;2022-08-04T04:57:04;1.25;;;1.15;;
12976;SDS011;6553;48.412;9.514;2022-08-04T04:59:36;1.33;;;1.25;;
12976;SDS011;6553;48.412;9.514;2022-08-04T05:16:45;1.45;;;1.35;;
12976;SDS011;6553;48.412;9.514;2022-08-04T05:19:27;1.20;;;1.20;;
12976;SDS011;6553;48.412;9.514;2022-08-04T05:25:05;1.77;;;1.67;;
12976;SDS011;6553;48.412;9.514;2022-08-04T05:27:44;1.23;;;1.13;;
12976;SDS011;6553;48.412;9.514;2022-08-04T05:30:26;1.60;;;1.50;;
12976;SDS011;6553;48.412;9.514;2022-08-04T05:32:59;1.73;;;1.63;;
12976;SDS011;6553;48.412;9.514;2022-08-04T05:35:35;1.52;;;1.42;;
12976;SDS011;6553;48.412;9.514;2022-08-04T05:38:14;1.20;;;1.13;;
12976;SDS011;6553;48.412;9.514;2022-08-04T05:40:46;1.50;;;1.40;;
12976;SDS011;6553;48.412;9.514;2022-08-04T05:43:14;1.60;;;1.50;;
12976;SDS011;6553;48.412;9.514;2022-08-04T05:45:42;1.10;;;1.10;;
12976;SDS011;6553;48.412;9.514;2022-08-04T05:48:12;1.45;;;1.35;;
12976;SDS011;6553;48.412;9.514;2022-08-04T05:50:39;1.50;;;1.40;;
12976;SDS011;6553;48.412;9.514;2022-08-04T05:53:05;1.50;;;1.33;;
12976;SDS011;6553;48.412;9.514;2022-08-04T05:55:34;1.67;;;1.58;;
12976;SDS011;6553;48.412;9.514;2022-08-04T05:58:00;1.73;;;1.63;;
12976;SDS011;6553;48.412;9.514;2022-08-04T06:00:27;1.63;;;1.40;;
12976;SDS011;6553;48.412;9.514;2022-08-04T06:02:54;1.55;;;1.45;;
12976;SDS011;6553;48.412;9.514;2022-08-04T06:05:23;1.80;;;1.70;;
12976;SDS011;6553;48.412;9.514;2022-08-04T06:07:50;2.63;;;1.77;;
12976;SDS011;6553;48.412;9.514;2022-08-04T06:10:16;2.13;;;1.70;;
12976;SDS011;6553;48.412;9.514;2022-08-04T06:12:44;2.45;;;1.40;;
12976;SDS011;6553;48.412;9.514;2022-08-04T06:15:20;1.70;;;1.60;;
12976;SDS011;6553;48.412;9.514;2022-08-04T06:17:53;1.52;;;1.35;;
12976;SDS011;6553;48.412;9.514;2022-08-04T06:20:26;1.50;;;1.40;;
12976;SDS011;6553;48.412;9.514;2022-08-04T06:22:59;1.75;;;1.65;;
12976;SDS011;6553;48.412;9.514;2022-08-04T06:25:35;1.67;;;1.58;;
12976;SDS011;6553;48.412;9.514;2022-08-04T06:28:09;1.88;;;1.77;;
12976;SDS011;6553;48.412;9.514;2022-08-04T06:30:35;2.10;;;1.52;;
12976;SDS011;6553;48.412;9.514;2022-08-04T06:33:04;1.70;;;1.60;;
12976;SDS011;6553;48.412;9.514;2022-08-04T06:35:51;2.63;;;1.80;;
12976;SDS011;6553;48.412;9.514;2022-08-04T06:38:23;2.13;;;2.00;;
12976;SDS011;6553;48.412;9.514;2022-08-04T06:40:52;1.67;;;1.58;;
12976;SDS011;6553;48.412;9.514;2022-08-04T06:43:23;2.42;;;1.65;;
12976;SDS011;6553;48.412;9.514;2022-08-04T06:45:51;1.80;;;1.70;;
12976;SDS011;6553;48.412;9.514;2022-08-04T06:48:19;1.80;;;1.70;;
12976;SDS011;6553;48.412;9.514;2022-08-04T06:50:48;1.73;;;1.63;;
12976;SDS011;6553;48.412;9.514;2022-08-04T06:53:16;1.73;;;1.63;;
12976;SDS011;6553;48.412;9.514;2022-08-04T06:55:42;1.80;;;1.70;;
12976;SDS011;6553;48.412;9.514;2022-08-04T06:58:11;2.00;;;1.83;;
12976;SDS011;6553;48.412;9.514;2022-08-04T07:00:39;2.35;;;1.90;;
12976;SDS011;6553;48.412;9.514;2022-08-04T07:03:08;1.70;;;1.50;;
12976;SDS011;6553;48.412;9.514;2022-08-04T07:05:35;1.70;;;1.60;;
12976;SDS011;6553;48.412;9.514;2022-08-04T07:08:02;1.80;;;1.70;;
12976;SDS011;6553;48.412;9.514;2022-08-04T07:10:29;2.00;;;1.80;;
12976;SDS011;6553;48.412;9.514;2022-08-04T07:12:56;1.80;;;1.70;;
12976;SDS011;6553;48.412;9.514;2022-08-04T07:15:24;1.83;;;1.67;;
12976;SDS011;6553;48.412;9.514;2022-08-04T07:17:52;1.70;;;1.60;;
12976;SDS011;6553;48.412;9.514;2022-08-04T07:20:23;1.70;;;1.60;;
12976;SDS011;6553;48.412;9.514;2022-08-04T07:22:50;2.42;;;2.25;;
12976;SDS011;6553;48.412;9.514;2022-08-04T07:25:17;2.03;;;1.80;;
12976;SDS011;6553;48.412;9.514;2022-08-04T07:27:44;1.77;;;1.67;;
12976;SDS011;6553;48.412;9.514;2022-08-04T07:30:10;1.77;;;1.67;;
12976;SDS011;6553;48.412;9.514;2022-08-04T07:32:37;2.35;;;1.77;;
12976;SDS011;6553;48.412;9.514;2022-08-04T07:35:06;2.25;;;1.77;;
12976;SDS011;6553;48.412;9.514;2022-08-04T07:37:33;1.73;;;1.63;;
12976;SDS011;6553;48.412;9.514;2022-08-04T07:39:59;1.83;;;1.70;;
12976;SDS011;6553;48.412;9.514;2022-08-04T07:42:25;2.20;;;1.70;;
12976;SDS011;6553;48.412;9.514;2022-08-04T07:44:52;1.95;;;1.75;;
12976;SDS011;6553;48.412;9.514;2022-08-04T07:47:18;1.80;;;1.70;;
12976;SDS011;6553;48.412;9.514;2022-08-04T07:49:44;3.47;;;1.90;;
12976;SDS011;6553;48.412;9.514;2022-08-04T07:52:10;2.05;;;1.90;;
12976;SDS011;6553;48.412;9.514;2022-08-04T07:54:37;2.20;;;2.00;;
12976;SDS011;6553;48.412;9.514;2022-08-04T07:57:04;1.90;;;1.80;;
12976;SDS011;6553;48.412;9.514;2022-08-04T07:59:31;2.00;;;1.67;;
12976;SDS011;6553;48.412;9.514;2022-08-04T08:01:58;2.28;;;2.08;;
12976;SDS011;6553;48.412;9.514;2022-08-04T08:04:25;2.72;;;1.98;;
12976;SDS011;6553;48.412;9.514;2022-08-04T08:06:52;1.67;;;1.58;;
12976;SDS011;6553;48.412;9.514;2022-08-04T08:09:18;3.17;;;1.83;;
12976;SDS011;6553;48.412;9.514;2022-08-04T08:11:49;1.90;;;1.80;;
12976;SDS011;6553;48.412;9.514;2022-08-04T08:14:17;1.98;;;1.88;;
12976;SDS011;6553;48.412;9.514;2022-08-04T08:16:44;2.35;;;2.15;;
12976;SDS011;6553;48.412;9.514;2022-08-04T08:19:11;2.20;;;2.00;;
12976;SDS011;6553;48.412;9.514;2022-08-04T08:21:38;2.03;;;1.83;;
12976;SDS011;6553;48.412;9.514;2022-08-04T08:24:04;1.85;;;1.75;;
12976;SDS011;6553;48.412;9.514;2022-08-04T08:26:31;2.00;;;1.90;;
12976;SDS011;6553;48.412;9.514;2022-08-04T08:28:57;2.72;;;2.08;;
12976;SDS011;6553;48.412;9.514;2022-08-04T08:31:23;2.20;;;2.00;;
12976;SDS011;6553;48.412;9.514;2022-08-04T08:33:49;2.15;;;2.05;;
12976;SDS011;6553;48.412;9.514;2022-08-04T08:48:20;2.00;;;1.83;;
12976;SDS011;6553;48.412;9.514;2022-08-04T08:51:32;1.75;;;1.65;;
12976;SDS011;6553;48.412;9.514;2022-08-04T08:54:31;2.30;;;2.00;;
12976;SDS011;6553;48.412;9.514;2022-08-04T08:57:23;2.08;;;1.92;;
12976;SDS011;6553;48.412;9.514;2022-08-04T09:00:27;1.83;;;1.73;;
12976;SDS011;6553;48.412;9.514;2022-08-04T09:12:19;2.17;;;2.00;;
12976;SDS011;6553;48.412;9.514;2022-08-04T09:18:35;2.13;;;1.95;;
12976;SDS011;6553;48.412;9.514;2022-08-04T09:20:49;2.13;;;1.92;;
12976;SDS011;6553;48.412;9.514;2022-08-04T09:23:33;2.00;;;1.90;;
12976;SDS011;6553;48.412;9.514;2022-08-04T09:26:13;1.70;;;1.60;;
12976;SDS011;6553;48.412;9.514;2022-08-04T09:37:57;1.98;;;1.88;;
12976;SDS011;6553;48.412;9.514;2022-08-04T09:40:55;1.83;;;1.73;;
12976;SDS011;6553;48.412;9.514;2022-08-04T09:48:57;1.98;;;1.80;;
12976;SDS011;6553;48.412;9.514;2022-08-04T09:57:21;1.98;;;1.88;;
12976;SDS011;6553;48.412;9.514;2022-08-04T10:00:20;2.17;;;1.85;;
12976;SDS011;6553;48.412;9.514;2022-08-04T10:02:54;2.10;;;1.90;;
12976;SDS011;6553;48.412;9.514;2022-08-04T10:05:25;2.00;;;1.90;;
12976;SDS011;6553;48.412;9.514;2022-08-04T10:20:50;2.05;;;1.95;;
12976;SDS011;6553;48.412;9.514;2022-08-04T10:26:55;2.13;;;1.85;;
12976;SDS011;6553;48.412;9.514;2022-08-04T10:30:06;1.73;;;1.60;;
12976;SDS011;6553;48.412;9.514;2022-08-04T10:35:58;1.65;;;1.50;;
12976;SDS011;6553;48.412;9.514;2022-08-04T10:38:30;2.17;;;2.00;;
12976;SDS011;6553;48.412;9.514;2022-08-04T10:41:26;2.17;;;1.98;;
12976;SDS011;6553;48.412;9.514;2022-08-04T10:47:08;2.20;;;2.05;;
12976;SDS011;6553;48.412;9.514;2022-08-04T10:49:44;1.75;;;1.65;;
12976;SDS011;6553;48.412;9.514;2022-08-04T10:54:55;1.92;;;1.73;;
12976;SDS011;6553;48.412;9.514;2022-08-04T10:57:45;2.00;;;1.90;;
12976;SDS011;6553;48.412;9.514;2022-08-04T11:00:25;1.90;;;1.80;;
12976;SDS011;6553;48.412;9.514;2022-08-04T11:05:48;2.05;;;1.85;;
12976;SDS011;6553;48.412;9.514;2022-08-04T11:16:35;2.00;;;1.90;;
12976;SDS011;6553;48.412;9.514;2022-08-04T11:27:46;2.55;;;2.25;;
12976;SDS011;6553;48.412;9.514;2022-08-04T11:30:31;1.98;;;1.88;;
12976;SDS011;6553;48.412;9.514;2022-08-04T11:36:01;2.22;;;1.83;;
12976;SDS011;6553;48.412;9.514;2022-08-04T11:38:52;2.33;;;2.20;;
12976;SDS011;6553;48.412;9.514;2022-08-04T11:47:29;1.90;;;1.80;;
12976;SDS011;6553;48.412;9.514;2022-08-04T11:53:02;1.98;;;1.88;;
12976;SDS011;6553;48.412;9.514;2022-08-04T11:55:30;2.47;;;2.10;;
12976;SDS011;6553;48.412;9.514;2022-08-04T11:57:58;2.22;;;2.03;;
12976;SDS011;6553;48.412;9.514;2022-08-04T12:00:25;2.42;;;2.17;;
12976;SDS011;6553;48.412;9.514;2022-08-04T12:05:43;1.83;;;1.73;;
12976;SDS011;6553;48.412;9.514;2022-08-04T12:16:58;2.15;;;1.95;;
12976;SDS011;6553;48.412;9.514;2022-08-04T12:21:58;2.28;;;2.17;;
12976;SDS011;6553;48.412;9.514;2022-08-04T12:24:43;2.22;;;2.03;;
12976;SDS011;6553;48.412;9.514;2022-08-04T12:30:32;2.40;;;2.20;;
12976;SDS011;6553;48.412;9.514;2022-08-04T12:35:46;2.30;;;2.20;;
12976;SDS011;6553;48.412;9.514;2022-08-04T12:38:22;2.10;;;2.00;;
12976;SDS011;6553;48.412;9.514;2022-08-04T12:40:56;2.10;;;2.00;;
12976;SDS011;6553;48.412;9.514;2022-08-04T12:43:42;2.58;;;2.25;;
12976;SDS011;6553;48.412;9.514;2022-08-04T12:46:12;2.33;;;2.13;;
12976;SDS011;6553;48.412;9.514;2022-08-04T12:48:48;2.17;;;2.00;;
12976;SDS011;6553;48.412;9.514;2022-08-04T12:51:15;2.20;;;2.10;;
12976;SDS011;6553;48.412;9.514;2022-08-04T12:53:42;2.40;;;2.20;;
12976;SDS011;6553;48.412;9.514;2022-08-04T12:56:10;2.13;;;2.03;;
12976;SDS011;6553;48.412;9.514;2022-08-04T12:58:48;2.33;;;2.13;;
12976;SDS011;6553;48.412;9.514;2022-08-04T13:01:24;2.35;;;2.15;;
12976;SDS011;6553;48.412;9.514;2022-08-04T13:04:11;2.20;;;2.10;;
12976;SDS011;6553;48.412;9.514;2022-08-04T13:06:42;2.17;;;2.08;;
12976;SDS011;6553;48.412;9.514;2022-08-04T13:09:22;2.00;;;1.90;;
12976;SDS011;6553;48.412;9.514;2022-08-04T13:11:56;2.40;;;2.20;;
12976;SDS011;6553;48.412;9.514;2022-08-04T13:14:28;2.50;;;2.30;;
12976;SDS011;6553;48.412;9.514;2022-08-04T13:17:00;2.38;;;2.25;;
12976;SDS011;6553;48.412;9.514;2022-08-04T13:19:26;2.42;;;2.22;;
12976;SDS011;6553;48.412;9.514;2022-08-04T13:21:54;2.35;;;2.15;;
12976;SDS011;6553;48.412;9.514;2022-08-04T13:24:23;2.75;;;2.25;;
12976;SDS011;6553;48.412;9.514;2022-08-04T13:32:03;2.70;;;2.30;;
12976;SDS011;6553;48.412;9.514;2022-08-04T13:34:31;2.58;;;2.30;;
12976;SDS011;6553;48.412;9.514;2022-08-04T13:36:59;2.35;;;2.25;;
12976;SDS011;6553;48.412;9.514;2022-08-04T13:39:28;2.20;;;2.00;;
12976;SDS011;6553;48.412;9.514;2022-08-04T13:41:56;1.75;;;1.65;;
12976;SDS011;6553;48.412;9.514;2022-08-04T13:44:30;2.50;;;2.30;;
12976;SDS011;6553;48.412;9.514;2022-08-04T13:47:10;2.33;;;1.90;;
12976;SDS011;6553;48.412;9.514;2022-08-04T13:50:03;2.60;;;2.40;;
12976;SDS011;6553;48.412;9.514;2022-08-04T13:52:55;3.20;;;2.50;;
12976;SDS011;6553;48.412;9.514;2022-08-04T13:55:24;2.28;;;2.17;;
12976;SDS011;6553;48.412;9.514;2022-08-04T13:58:18;2.25;;;2.15;;
12976;SDS011;6553;48.412;9.514;2022-08-04T14:00:52;2.22;;;2.13;;
12976;SDS011;6553;48.412;9.514;2022-08-04T14:03:30;1.90;;;1.80;;
12976;SDS011;6553;48.412;9.514;2022-08-04T14:08:46;2.35;;;2.10;;
12976;SDS011;6553;48.412;9.514;2022-08-04T14:11:21;2.17;;;2.00;;
12976;SDS011;6553;48.412;9.514;2022-08-04T14:14:12;2.38;;;2.28;;
12976;SDS011;6553;48.412;9.514;2022-08-04T14:24:57;2.67;;;2.47;;
12976;SDS011;6553;48.412;9.514;2022-08-04T14:30:29;2.03;;;1.92;;
12976;SDS011;6553;48.412;9.514;2022-08-04T14:33:04;3.13;;;2.83;;
12976;SDS011;6553;48.412;9.514;2022-08-04T14:35:32;2.05;;;1.95;;
12976;SDS011;6553;48.412;9.514;2022-08-04T14:38:00;2.55;;;2.13;;
12976;SDS011;6553;48.412;9.514;2022-08-04T14:40:30;2.20;;;1.98;;
12976;SDS011;6553;48.412;9.514;2022-08-04T14:42:59;2.53;;;2.40;;
12976;SDS011;6553;48.412;9.514;2022-08-04T14:45:27;2.47;;;2.10;;
12976;SDS011;6553;48.412;9.514;2022-08-04T14:48:18;2.10;;;2.00;;
12976;SDS011;6553;48.412;9.514;2022-08-04T14:50:46;2.28;;;2.08;;
12976;SDS011;6553;48.412;9.514;2022-08-04T14:53:21;2.33;;;2.13;;
12976;SDS011;6553;48.412;9.514;2022-08-04T14:55:51;2.30;;;2.20;;
12976;SDS011;6553;48.412;9.514;2022-08-04T14:58:25;2.15;;;2.05;;
12976;SDS011;6553;48.412;9.514;2022-08-04T15:00:57;2.78;;;2.22;;
12976;SDS011;6553;48.412;9.514;2022-08-04T15:03:27;3.20;;;2.03;;
12976;SDS011;6553;48.412;9.514;2022-08-04T15:05:56;3.97;;;2.40;;
12976;SDS011;6553;48.412;9.514;2022-08-04T15:08:24;2.35;;;2.20;;
12976;SDS011;6553;48.412;9.514;2022-08-04T15:10:52;2.38;;;1.98;;
12976;SDS011;6553;48.412;9.514;2022-08-04T15:13:23;2.30;;;2.10;;
12976;SDS011;6553;48.412;9.514;2022-08-04T15:15:50;2.90;;;2.70;;
12976;SDS011;6553;48.412;9.514;2022-08-04T15:18:17;3.33;;;2.40;;
12976;SDS011;6553;48.412;9.514;2022-08-04T15:20:43;2.78;;;2.40;;
12976;SDS011;6553;48.412;9.514;2022-08-04T15:23:11;2.65;;;2.45;;
12976;SDS011;6553;48.412;9.514;2022-08-04T15:25:41;2.88;;;2.42;;
12976;SDS011;6553;48.412;9.514;2022-08-04T15:28:17;2.60;;;2.35;;
12976;SDS011;6553;48.412;9.514;2022-08-04T15:30:47;2.45;;;2.13;;
12976;SDS011;6553;48.412;9.514;2022-08-04T15:33:17;2.20;;;2.10;;
12976;SDS011;6553;48.412;9.514;2022-08-04T15:35:48;2.35;;;2.05;;
12976;SDS011;6553;48.412;9.514;2022-08-04T15:38:31;2.70;;;2.50;;
12976;SDS011;6553;48.412;9.514;2022-08-04T15:41:09;2.80;;;2.50;;
12976;SDS011;6553;48.412;9.514;2022-08-04T15:49:28;2.63;;;2.38;;
12976;SDS011;6553;48.412;9.514;2022-08-04T15:52:01;2.53;;;2.30;;
12976;SDS011;6553;48.412;9.514;2022-08-04T15:54:30;3.20;;;2.70;;
12976;SDS011;6553;48.412;9.514;2022-08-04T15:56:56;2.80;;;2.60;;
12976;SDS011;6553;48.412;9.514;2022-08-04T16:02:39;2.67;;;2.47;;
12976;SDS011;6553;48.412;9.514;2022-08-04T16:05:29;2.70;;;2.50;;
12976;SDS011;6553;48.412;9.514;2022-08-04T16:07:55;3.22;;;2.35;;
12976;SDS011;6553;48.412;9.514;2022-08-04T16:13:08;2.53;;;2.20;;
12976;SDS011;6553;48.412;9.514;2022-08-04T16:18:05;2.53;;;2.40;;
12976;SDS011;6553;48.412;9.514;2022-08-04T16:20:32;2.70;;;2.50;;
12976;SDS011;6553;48.412;9.514;2022-08-04T16:23:14;2.90;;;2.60;;
12976;SDS011;6553;48.412;9.514;2022-08-04T16:25:58;2.25;;;2.15;;
12976;SDS011;6553;48.412;9.514;2022-08-04T16:28:45;2.60;;;2.40;;
12976;SDS011;6553;48.412;9.514;2022-08-04T16:31:10;2.13;;;2.03;;
12976;SDS011;6553;48.412;9.514;2022-08-04T16:33:37;2.88;;;2.40;;
12976;SDS011;6553;48.412;9.514;2022-08-04T16:36:07;2.85;;;2.65;;
12976;SDS011;6553;48.412;9.514;2022-08-04T16:41:59;2.20;;;2.10;;
12976;SDS011;6553;48.412;9.514;2022-08-04T16:44:34;2.40;;;2.28;;
12976;SDS011;6553;48.412;9.514;2022-08-04T16:47:03;2.60;;;2.40;;
12976;SDS011;6553;48.412;9.514;2022-08-04T16:49:31;3.00;;;2.80;;
12976;SDS011;6553;48.412;9.514;2022-08-04T16:52:01;2.85;;;2.65;;
12976;SDS011;6553;48.412;9.514;2022-08-04T16:54:34;2.70;;;2.50;;
12976;SDS011;6553;48.412;9.514;2022-08-04T16:57:07;2.80;;;2.60;;
12976;SDS011;6553;48.412;9.514;2022-08-04T16:59:34;2.50;;;2.30;;
12976;SDS011;6553;48.412;9.514;2022-08-04T17:02:01;2.72;;;2.53;;
12976;SDS011;6553;48.412;9.514;2022-08-04T17:04:28;2.60;;;2.40;;
12976;SDS011;6553;48.412;9.514;2022-08-04T17:07:03;2.50;;;2.25;;
12976;SDS011;6553;48.412;9.514;2022-08-04T17:09:30;2.58;;;2.38;;
12976;SDS011;6553;48.412;9.514;2022-08-04T17:11:57;2.42;;;2.33;;
12976;SDS011;6553;48.412;9.514;2022-08-04T17:14:27;2.83;;;2.50;;
12976;SDS011;6553;48.412;9.514;2022-08-04T17:16:55;3.28;;;2.50;;
12976;SDS011;6553;48.412;9.514;2022-08-04T17:19:24;2.83;;;2.63;;
12976;SDS011;6553;48.412;9.514;2022-08-04T17:21:50;2.83;;;2.63;;
12976;SDS011;6553;48.412;9.514;2022-08-04T17:24:28;2.95;;;2.75;;
12976;SDS011;6553;48.412;9.514;2022-08-04T17:26:54;2.78;;;2.58;;
12976;SDS011;6553;48.412;9.514;2022-08-04T17:29:22;2.70;;;2.50;;
12976;SDS011;6553;48.412;9.514;2022-08-04T17:31:53;2.80;;;2.50;;
12976;SDS011;6553;48.412;9.514;2022-08-04T17:34:21;2.80;;;2.60;;
12976;SDS011;6553;48.412;9.514;2022-08-04T17:36:49;3.00;;;2.50;;
12976;SDS011;6553;48.412;9.514;2022-08-04T17:39:18;2.80;;;2.60;;
12976;SDS011;6553;48.412;9.514;2022-08-04T17:41:47;2.47;;;2.30;;
12976;SDS011;6553;48.412;9.514;2022-08-04T17:44:33;2.72;;;2.53;;
12976;SDS011;6553;48.412;9.514;2022-08-04T17:47:06;2.80;;;2.60;;
12976;SDS011;6553;48.412;9.514;2022-08-04T17:49:42;3.00;;;2.70;;
12976;SDS011;6553;48.412;9.514;2022-08-04T17:52:09;2.80;;;2.60;;
12976;SDS011;6553;48.412;9.514;2022-08-04T17:54:46;2.60;;;2.42;;
12976;SDS011;6553;48.412;9.514;2022-08-04T17:57:25;2.70;;;2.50;;
12976;SDS011;6553;48.412;9.514;2022-08-04T18:02:22;2.47;;;2.35;;
12976;SDS011;6553;48.412;9.514;2022-08-04T18:04:50;2.90;;;2.70;;
12976;SDS011;6553;48.412;9.514;2022-08-04T18:07:32;2.83;;;2.63;;
12976;SDS011;6553;48.412;9.514;2022-08-04T18:10:00;2.63;;;2.42;;
12976;SDS011;6553;48.412;9.514;2022-08-04T18:12:27;2.50;;;2.22;;
12976;SDS011;6553;48.412;9.514;2022-08-04T18:15:01;2.67;;;2.47;;
12976;SDS011;6553;48.412;9.514;2022-08-04T18:17:46;2.63;;;2.42;;
12976;SDS011;6553;48.412;9.514;2022-08-04T18:20:14;3.03;;;2.78;;
12976;SDS011;6553;48.412;9.514;2022-08-04T18:22:45;2.72;;;2.50;;
12976;SDS011;6553;48.412;9.514;2022-08-04T18:25:13;2.53;;;2.33;;
12976;SDS011;6553;48.412;9.514;2022-08-04T18:27:45;2.30;;;2.20;;
12976;SDS011;6553;48.412;9.514;2022-08-04T18:30:20;2.80;;;2.60;;
12976;SDS011;6553;48.412;9.514;2022-08-04T18:32:47;2.33;;;2.20;;
12976;SDS011;6553;48.412;9.514;2022-08-04T18:35:14;2.50;;;2.30;;
12976;SDS011;6553;48.412;9.514;2022-08-04T18:37:40;3.22;;;3.03;;
12976;SDS011;6553;48.412;9.514;2022-08-04T18:40:07;2.30;;;2.20;;
12976;SDS011;6553;48.412;9.514;2022-08-04T18:42:34;2.45;;;2.25;;
12976;SDS011;6553;48.412;9.514;2022-08-04T18:45:01;3.05;;;2.38;;
12976;SDS011;6553;48.412;9.514;2022-08-04T18:47:28;2.88;;;2.67;;
12976;SDS011;6553;48.412;9.514;2022-08-04T18:49:54;3.08;;;2.88;;
12976;SDS011;6553;48.412;9.514;2022-08-04T18:52:20;2.88;;;2.67;;
12976;SDS011;6553;48.412;9.514;2022-08-04T18:54:47;2.70;;;2.47;;
12976;SDS011;6553;48.412;9.514;2022-08-04T18:57:20;2.95;;;2.75;;
12976;SDS011;6553;48.412;9.514;2022-08-04T18:59:47;3.30;;;2.80;;
12976;SDS011;6553;48.412;9.514;2022-08-04T19:02:14;4.85;;;2.72;;
12976;SDS011;6553;48.412;9.514;2022-08-04T19:04:40;3.00;;;2.78;;
12976;SDS011;6553;48.412;9.514;2022-08-04T19:07:07;3.10;;;2.90;;
12976;SDS011;6553;48.412;9.514;2022-08-04T19:09:34;4.10;;;2.97;;
12976;SDS011;6553;48.412;9.514;2022-08-04T19:11:59;2.75;;;2.55;;
12976;SDS011;6553;48.412;9.514;2022-08-04T19:14:25;3.15;;;2.50;;
12976;SDS011;6553;48.412;9.514;2022-08-04T19:16:51;2.90;;;2.70;;
12976;SDS011;6553;48.412;9.514;2022-08-04T19:19:17;2.88;;;2.67;;
12976;SDS011;6553;48.412;9.514;2022-08-04T19:21:44;3.15;;;2.85;;
12976;SDS011;6553;48.412;9.514;2022-08-04T19:24:10;3.30;;;3.00;;
12976;SDS011;6553;48.412;9.514;2022-08-04T19:26:37;2.92;;;2.67;;
12976;SDS011;6553;48.412;9.514;2022-08-04T19:29:03;2.92;;;2.72;;
12976;SDS011;6553;48.412;9.514;2022-08-04T19:31:30;2.90;;;2.70;;
12976;SDS011;6553;48.412;9.514;2022-08-04T19:33:56;3.40;;;2.70;;
12976;SDS011;6553;48.412;9.514;2022-08-04T19:36:22;2.88;;;2.67;;
12976;SDS011;6553;48.412;9.514;2022-08-04T19:38:51;3.50;;;3.20;;
12976;SDS011;6553;48.412;9.514;2022-08-04T19:41:18;3.03;;;2.40;;
12976;SDS011;6553;48.412;9.514;2022-08-04T19:43:44;2.90;;;2.70;;
12976;SDS011;6553;48.412;9.514;2022-08-04T19:46:11;3.05;;;2.67;;
12976;SDS011;6553;48.412;9.514;2022-08-04T19:48:39;2.60;;;2.40;;
12976;SDS011;6553;48.412;9.514;2022-08-04T19:51:05;3.35;;;3.05;;
12976;SDS011;6553;48.412;9.514;2022-08-04T19:53:31;2.63;;;2.42;;
12976;SDS011;6553;48.412;9.514;2022-08-04T19:55:57;2.55;;;2.35;;
12976;SDS011;6553;48.412;9.514;2022-08-04T19:58:23;3.15;;;2.40;;
12976;SDS011;6553;48.412;9.514;2022-08-04T20:00:49;2.65;;;2.50;;
12976;SDS011;6553;48.412;9.514;2022-08-04T20:03:16;2.80;;;2.60;;
12976;SDS011;6553;48.412;9.514;2022-08-04T20:05:42;2.47;;;2.28;;
12976;SDS011;6553;48.412;9.514;2022-08-04T20:08:09;3.28;;;2.70;;
12976;SDS011;6553;48.412;9.514;2022-08-04T20:10:36;2.88;;;2.67;;
12976;SDS011;6553;48.412;9.514;2022-08-04T20:13:03;2.58;;;2.38;;
12976;SDS011;6553;48.412;9.514;2022-08-04T20:15:30;3.10;;;2.80;;
12976;SDS011;6553;48.412;9.514;2022-08-04T20:17:56;3.28;;;2.97;;
12976;SDS011;6553;48.412;9.514;2022-08-04T20:20:22;2.90;;;2.70;;
12976;SDS011;6553;48.412;9.514;2022-08-04T20:22:48;2.47;;;2.38;;
12976;SDS011;6553;48.412;9.514;2022-08-04T20:25:14;2.92;;;2.72;;
12976;SDS011;6553;48.412;9.514;2022-08-04T20:27:39;3.38;;;2.70;;
12976;SDS011;6553;48.412;9.514;2022-08-04T20:30:06;2.95;;;2.75;;
12976;SDS011;6553;48.412;9.514;2022-08-04T20:32:33;2.63;;;2.42;;
12976;SDS011;6553;48.412;9.514;2022-08-04T20:34:58;3.92;;;2.72;;
12976;SDS011;6553;48.412;9.514;2022-08-04T20:37:25;2.92;;;2.67;;
12976;SDS011;6553;48.412;9.514;2022-08-04T20:39:55;3.53;;;2.70;;
12976;SDS011;6553;48.412;9.514;2022-08-04T20:42:23;2.97;;;2.58;;
12976;SDS011;6553;48.412;9.514;2022-08-04T20:44:51;2.97;;;2.72;;
12976;SDS011;6553;48.412;9.514;2022-08-04T20:47:18;3.40;;;2.88;;
12976;SDS011;6553;48.412;9.514;2022-08-04T20:49:44;2.60;;;2.40;;